sensor_id;sensor_type;location;lat;lon;timestamp;P1;P2;P0
44674;PMS5003;30388;52.038;-1.478;2023-03-01T00:01:36;169;169;
44674;PMS5003;30388;52.038;-1.478;2023-03-01T00:04:03;127;126;
44674;PMS5003;30388;52.038;-1.478;2023-03-01T00:06:31;101;101;
44674;PMS5003;30388;52.038;-1.478;2023-03-01T00:08:59;105;105;
44674;PMS5003;30388;52.038;-1.478;2023-03-01T00:11:27;99;98;
44674;PMS5003;30388;52.038;-1.478;2023-03-01T00:13:58;116;116;
44674;PMS5003;30388;52.038;-1.478;2023-03-01T00:16:28;158;158;
44674;PMS5003;30388;52.038;-1.478;2023-03-01T00:18:58;173;173;
44674;PMS5003;30388;52.038;-1.478;2023-03-01T00:21:26;155;155;
44674;PMS5003;30388;52.038;-1.478;2023-03-01T00:23:54;161;161;
44674;PMS5003;30388;52.038;-1.478;2023-03-01T00:26:22;177;177;
44674;PMS5003;30388;52.038;-1.478;2023-03-01T00:28:51;174;174;
44674;PMS5003;30388;52.038;-1.478;2023-03-01T00:31:20;183;183;
44674;PMS5003;30388;52.038;-1.478;2023-03-01T00:33:52;264;264;
44674;PMS5003;30388;52.038;-1.478;2023-03-01T00:36:19;213;213;
44674;PMS5003;30388;52.038;-1.478;2023-03-01T00:38:47;102;102;
44674;PMS5003;30388;52.038;-1.478;2023-03-01T00:41:15;112;110;
44674;PMS5003;30388;52.038;-1.478;2023-03-01T00:43:44;77;77;
44674;PMS5003;30388;52.038;-1.478;2023-03-01T00:46:12;88;88;
44674;PMS5003;30388;52.038;-1.478;2023-03-01T00:48:41;88;88;
44674;PMS5003;30388;52.038;-1.478;2023-03-01T00:51:10;54;54;
44674;PMS5003;30388;52.038;-1.478;2023-03-01T00:53:40;43;43;
44674;PMS5003;30388;52.038;-1.478;2023-03-01T00:56:09;46;46;
44674;PMS5003;30388;52.038;-1.478;2023-03-01T00:58:36;59;59;
44674;PMS5003;30388;52.038;-1.478;2023-03-01T01:01:07;71;67;
44674;PMS5003;30388;52.038;-1.478;2023-03-01T01:03:36;68;68;
44674;PMS5003;30388;52.038;-1.478;2023-03-01T01:06:03;47;47;
44674;PMS5003;30388;52.038;-1.478;2023-03-01T01:08:31;37;37;
44674;PMS5003;30388;52.038;-1.478;2023-03-01T01:10:58;43;43;
44674;PMS5003;30388;52.038;-1.478;2023-03-01T01:13:26;74;74;
44674;PMS5003;30388;52.038;-1.478;2023-03-01T01:15:53;51;51;
44674;PMS5003;30388;52.038;-1.478;2023-03-01T01:18:20;51;50;
44674;PMS5003;30388;52.038;-1.478;2023-03-01T01:20:47;67;66;
44674;PMS5003;30388;52.038;-1.478;2023-03-01T01:23:15;55;54;
44674;PMS5003;30388;52.038;-1.478;2023-03-01T01:25:42;77;77;
44674;PMS5003;30388;52.038;-1.478;2023-03-01T01:28:09;61;61;
44674;PMS5003;30388;52.038;-1.478;2023-03-01T01:30:36;54;54;
44674;PMS5003;30388;52.038;-1.478;2023-03-01T01:33:04;30;30;
44674;PMS5003;30388;52.038;-1.478;2023-03-01T01:35:31;33;33;
44674;PMS5003;30388;52.038;-1.478;2023-03-01T01:37:59;30;28;
44674;PMS5003;30388;52.038;-1.478;2023-03-01T01:40:25;23;23;
44674;PMS5003;30388;52.038;-1.478;2023-03-01T01:42:53;36;36;
44674;PMS5003;30388;52.038;-1.478;2023-03-01T01:45:24;39;39;
44674;PMS5003;30388;52.038;-1.478;2023-03-01T01:47:55;30;28;
44674;PMS5003;30388;52.038;-1.478;2023-03-01T01:50:26;51;51;
44674;PMS5003;30388;52.038;-1.478;2023-03-01T01:52:54;39;39;
44674;PMS5003;30388;52.038;-1.478;2023-03-01T01:55:22;22;22;
44674;PMS5003;30388;52.038;-1.478;2023-03-01T01:57:53;50;50;
44674;PMS5003;30388;52.038;-1.478;2023-03-01T02:00:26;58;58;
44674;PMS5003;30388;52.038;-1.478;2023-03-01T02:02:56;46;44;
44674;PMS5003;30388;52.038;-1.478;2023-03-01T02:05:31;40;39;
44674;PMS5003;30388;52.038;-1.478;2023-03-01T02:08:05;84;80;
44674;PMS5003;30388;52.038;-1.478;2023-03-01T02:10:33;45;45;
44674;PMS5003;30388;52.038;-1.478;2023-03-01T02:13:02;63;63;
44674;PMS5003;30388;52.038;-1.478;2023-03-01T02:15:31;71;70;
44674;PMS5003;30388;52.038;-1.478;2023-03-01T02:17:58;79;79;
44674;PMS5003;30388;52.038;-1.478;2023-03-01T02:20:30;86;86;
44674;PMS5003;30388;52.038;-1.478;2023-03-01T02:23:02;107;107;
44674;PMS5003;30388;52.038;-1.478;2023-03-01T02:25:31;152;150;
44674;PMS5003;30388;52.038;-1.478;2023-03-01T02:28:10;192;192;
44674;PMS5003;30388;52.038;-1.478;2023-03-01T02:30:46;167;167;
44674;PMS5003;30388;52.038;-1.478;2023-03-01T02:33:15;145;144;
44674;PMS5003;30388;52.038;-1.478;2023-03-01T02:35:43;141;140;
44674;PMS5003;30388;52.038;-1.478;2023-03-01T02:38:10;145;143;
44674;PMS5003;30388;52.038;-1.478;2023-03-01T02:40:37;163;163;
44674;PMS5003;30388;52.038;-1.478;2023-03-01T02:43:07;167;166;
44674;PMS5003;30388;52.038;-1.478;2023-03-01T02:45:43;138;138;
44674;PMS5003;30388;52.038;-1.478;2023-03-01T02:48:15;138;138;
44674;PMS5003;30388;52.038;-1.478;2023-03-01T02:50:46;78;75;
44674;PMS5003;30388;52.038;-1.478;2023-03-01T02:53:32;35;33;
44674;PMS5003;30388;52.038;-1.478;2023-03-01T02:56:06;31;31;
44674;PMS5003;30388;52.038;-1.478;2023-03-01T02:58:34;22;22;
44674;PMS5003;30388;52.038;-1.478;2023-03-01T03:01:02;17;17;
44674;PMS5003;30388;52.038;-1.478;2023-03-01T03:03:29;12;12;
44674;PMS5003;30388;52.038;-1.478;2023-03-01T03:05:57;8;8;
44674;PMS5003;30388;52.038;-1.478;2023-03-01T03:08:24;11;10;
44674;PMS5003;30388;52.038;-1.478;2023-03-01T03:10:52;27;27;
44674;PMS5003;30388;52.038;-1.478;2023-03-01T03:13:19;24;23;
44674;PMS5003;30388;52.038;-1.478;2023-03-01T03:15:46;26;25;
44674;PMS5003;30388;52.038;-1.478;2023-03-01T03:18:16;8;8;
44674;PMS5003;30388;52.038;-1.478;2023-03-01T03:20:44;24;23;
44674;PMS5003;30388;52.038;-1.478;2023-03-01T03:23:12;14;14;
44674;PMS5003;30388;52.038;-1.478;2023-03-01T03:25:39;12;12;
44674;PMS5003;30388;52.038;-1.478;2023-03-01T03:28:07;17;15;
44674;PMS5003;30388;52.038;-1.478;2023-03-01T03:30:34;16;12;
44674;PMS5003;30388;52.038;-1.478;2023-03-01T03:33:03;18;18;
44674;PMS5003;30388;52.038;-1.478;2023-03-01T03:35:32;29;29;
44674;PMS5003;30388;52.038;-1.478;2023-03-01T03:38:04;52;52;
44674;PMS5003;30388;52.038;-1.478;2023-03-01T03:40:35;67;67;
44674;PMS5003;30388;52.038;-1.478;2023-03-01T03:43:04;47;46;
44674;PMS5003;30388;52.038;-1.478;2023-03-01T03:45:33;36;33;
44674;PMS5003;30388;52.038;-1.478;2023-03-01T03:48:02;50;50;
44674;PMS5003;30388;52.038;-1.478;2023-03-01T03:50:31;19;19;
44674;PMS5003;30388;52.038;-1.478;2023-03-01T03:52:59;23;23;
44674;PMS5003;30388;52.038;-1.478;2023-03-01T03:55:28;80;80;
44674;PMS5003;30388;52.038;-1.478;2023-03-01T03:57:56;67;67;
44674;PMS5003;30388;52.038;-1.478;2023-03-01T04:00:24;116;114;
44674;PMS5003;30388;52.038;-1.478;2023-03-01T04:02:52;73;73;
44674;PMS5003;30388;52.038;-1.478;2023-03-01T04:05:19;46;46;
44674;PMS5003;30388;52.038;-1.478;2023-03-01T04:07:46;43;43;
44674;PMS5003;30388;52.038;-1.478;2023-03-01T04:10:14;33;33;
44674;PMS5003;30388;52.038;-1.478;2023-03-01T04:12:42;31;29;
44674;PMS5003;30388;52.038;-1.478;2023-03-01T04:15:10;16;15;
44674;PMS5003;30388;52.038;-1.478;2023-03-01T04:17:38;24;24;
44674;PMS5003;30388;52.038;-1.478;2023-03-01T04:20:06;17;17;
44674;PMS5003;30388;52.038;-1.478;2023-03-01T04:22:35;4;4;
44674;PMS5003;30388;52.038;-1.478;2023-03-01T04:25:02;11;11;
44674;PMS5003;30388;52.038;-1.478;2023-03-01T04:27:29;17;17;
44674;PMS5003;30388;52.038;-1.478;2023-03-01T04:29:57;21;21;
44674;PMS5003;30388;52.038;-1.478;2023-03-01T04:32:24;18;18;
44674;PMS5003;30388;52.038;-1.478;2023-03-01T04:34:51;17;17;
44674;PMS5003;30388;52.038;-1.478;2023-03-01T04:37:18;10;10;
44674;PMS5003;30388;52.038;-1.478;2023-03-01T04:39:46;21;21;
44674;PMS5003;30388;52.038;-1.478;2023-03-01T04:42:13;53;53;
44674;PMS5003;30388;52.038;-1.478;2023-03-01T04:44:40;32;32;
44674;PMS5003;30388;52.038;-1.478;2023-03-01T04:47:08;57;57;
44674;PMS5003;30388;52.038;-1.478;2023-03-01T04:49:35;45;45;
44674;PMS5003;30388;52.038;-1.478;2023-03-01T04:52:03;33;33;
44674;PMS5003;30388;52.038;-1.478;2023-03-01T04:54:31;34;34;
44674;PMS5003;30388;52.038;-1.478;2023-03-01T04:56:59;60;60;
44674;PMS5003;30388;52.038;-1.478;2023-03-01T04:59:27;30;30;
44674;PMS5003;30388;52.038;-1.478;2023-03-01T05:01:55;46;44;
44674;PMS5003;30388;52.038;-1.478;2023-03-01T05:04:23;35;35;
44674;PMS5003;30388;52.038;-1.478;2023-03-01T05:06:51;30;30;
44674;PMS5003;30388;52.038;-1.478;2023-03-01T05:09:18;27;26;
44674;PMS5003;30388;52.038;-1.478;2023-03-01T05:11:45;30;30;
44674;PMS5003;30388;52.038;-1.478;2023-03-01T05:14:12;24;24;
44674;PMS5003;30388;52.038;-1.478;2023-03-01T05:16:39;40;40;
44674;PMS5003;30388;52.038;-1.478;2023-03-01T05:19:06;60;60;
44674;PMS5003;30388;52.038;-1.478;2023-03-01T05:21:34;69;69;
44674;PMS5003;30388;52.038;-1.478;2023-03-01T05:24:01;104;104;
44674;PMS5003;30388;52.038;-1.478;2023-03-01T05:26:29;75;75;
44674;PMS5003;30388;52.038;-1.478;2023-03-01T05:28:56;67;67;
44674;PMS5003;30388;52.038;-1.478;2023-03-01T05:31:23;87;87;
44674;PMS5003;30388;52.038;-1.478;2023-03-01T05:33:51;85;85;
44674;PMS5003;30388;52.038;-1.478;2023-03-01T05:36:18;63;63;
44674;PMS5003;30388;52.038;-1.478;2023-03-01T05:38:46;85;84;
44674;PMS5003;30388;52.038;-1.478;2023-03-01T05:41:14;136;136;
44674;PMS5003;30388;52.038;-1.478;2023-03-01T05:43:41;124;122;
44674;PMS5003;30388;52.038;-1.478;2023-03-01T05:46:09;131;131;
44674;PMS5003;30388;52.038;-1.478;2023-03-01T05:48:36;165;164;
44674;PMS5003;30388;52.038;-1.478;2023-03-01T05:51:03;180;180;
44674;PMS5003;30388;52.038;-1.478;2023-03-01T05:53:31;168;168;
44674;PMS5003;30388;52.038;-1.478;2023-03-01T05:55:59;151;151;
44674;PMS5003;30388;52.038;-1.478;2023-03-01T05:58:26;244;244;
44674;PMS5003;30388;52.038;-1.478;2023-03-01T06:00:53;150;149;
44674;PMS5003;30388;52.038;-1.478;2023-03-01T06:03:20;146;146;
44674;PMS5003;30388;52.038;-1.478;2023-03-01T06:05:48;180;179;
44674;PMS5003;30388;52.038;-1.478;2023-03-01T06:08:16;135;135;
44674;PMS5003;30388;52.038;-1.478;2023-03-01T06:10:43;157;155;
44674;PMS5003;30388;52.038;-1.478;2023-03-01T06:13:11;133;133;
44674;PMS5003;30388;52.038;-1.478;2023-03-01T06:15:38;131;131;
44674;PMS5003;30388;52.038;-1.478;2023-03-01T06:18:05;111;111;
44674;PMS5003;30388;52.038;-1.478;2023-03-01T06:20:32;163;163;
44674;PMS5003;30388;52.038;-1.478;2023-03-01T06:23:00;170;170;
44674;PMS5003;30388;52.038;-1.478;2023-03-01T06:25:27;165;164;
44674;PMS5003;30388;52.038;-1.478;2023-03-01T06:27:55;183;183;
44674;PMS5003;30388;52.038;-1.478;2023-03-01T06:30:23;237;237;
44674;PMS5003;30388;52.038;-1.478;2023-03-01T06:32:52;190;190;
44674;PMS5003;30388;52.038;-1.478;2023-03-01T06:35:20;188;188;
44674;PMS5003;30388;52.038;-1.478;2023-03-01T06:37:47;200;200;
44674;PMS5003;30388;52.038;-1.478;2023-03-01T06:40:15;317;317;
44674;PMS5003;30388;52.038;-1.478;2023-03-01T06:42:43;233;233;
44674;PMS5003;30388;52.038;-1.478;2023-03-01T06:45:14;335;335;
44674;PMS5003;30388;52.038;-1.478;2023-03-01T06:47:42;230;229;
44674;PMS5003;30388;52.038;-1.478;2023-03-01T06:50:10;230;230;
44674;PMS5003;30388;52.038;-1.478;2023-03-01T06:52:38;170;170;
44674;PMS5003;30388;52.038;-1.478;2023-03-01T06:55:06;134;134;
44674;PMS5003;30388;52.038;-1.478;2023-03-01T06:57:34;153;153;
44674;PMS5003;30388;52.038;-1.478;2023-03-01T07:00:01;182;182;
44674;PMS5003;30388;52.038;-1.478;2023-03-01T07:02:28;150;150;
44674;PMS5003;30388;52.038;-1.478;2023-03-01T07:04:55;169;169;
44674;PMS5003;30388;52.038;-1.478;2023-03-01T07:07:22;158;158;
44674;PMS5003;30388;52.038;-1.478;2023-03-01T07:09:50;179;178;
44674;PMS5003;30388;52.038;-1.478;2023-03-01T07:12:17;199;199;
44674;PMS5003;30388;52.038;-1.478;2023-03-01T07:14:44;204;204;
44674;PMS5003;30388;52.038;-1.478;2023-03-01T07:17:11;185;185;
44674;PMS5003;30388;52.038;-1.478;2023-03-01T07:19:39;153;153;
44674;PMS5003;30388;52.038;-1.478;2023-03-01T07:22:06;160;157;
44674;PMS5003;30388;52.038;-1.478;2023-03-01T07:24:33;151;149;
44674;PMS5003;30388;52.038;-1.478;2023-03-01T07:27:01;178;178;
44674;PMS5003;30388;52.038;-1.478;2023-03-01T07:29:29;170;170;
44674;PMS5003;30388;52.038;-1.478;2023-03-01T07:31:56;141;141;
44674;PMS5003;30388;52.038;-1.478;2023-03-01T07:34:23;164;164;
44674;PMS5003;30388;52.038;-1.478;2023-03-01T07:36:51;135;135;
44674;PMS5003;30388;52.038;-1.478;2023-03-01T07:39:18;176;176;
44674;PMS5003;30388;52.038;-1.478;2023-03-01T07:41:45;163;163;
44674;PMS5003;30388;52.038;-1.478;2023-03-01T07:44:12;156;156;
44674;PMS5003;30388;52.038;-1.478;2023-03-01T07:46:39;164;164;
44674;PMS5003;30388;52.038;-1.478;2023-03-01T07:49:07;158;157;
44674;PMS5003;30388;52.038;-1.478;2023-03-01T07:51:35;152;151;
44674;PMS5003;30388;52.038;-1.478;2023-03-01T07:54:03;180;180;
44674;PMS5003;30388;52.038;-1.478;2023-03-01T07:56:31;158;158;
44674;PMS5003;30388;52.038;-1.478;2023-03-01T07:58:58;108;108;
44674;PMS5003;30388;52.038;-1.478;2023-03-01T08:01:25;129;127;
44674;PMS5003;30388;52.038;-1.478;2023-03-01T08:03:52;149;149;
44674;PMS5003;30388;52.038;-1.478;2023-03-01T08:06:19;123;123;
44674;PMS5003;30388;52.038;-1.478;2023-03-01T08:08:47;114;113;
44674;PMS5003;30388;52.038;-1.478;2023-03-01T08:11:14;170;170;
44674;PMS5003;30388;52.038;-1.478;2023-03-01T08:13:42;117;117;
44674;PMS5003;30388;52.038;-1.478;2023-03-01T08:16:11;129;128;
44674;PMS5003;30388;52.038;-1.478;2023-03-01T08:18:40;156;156;
44674;PMS5003;30388;52.038;-1.478;2023-03-01T08:21:08;149;149;
44674;PMS5003;30388;52.038;-1.478;2023-03-01T08:23:37;159;158;
44674;PMS5003;30388;52.038;-1.478;2023-03-01T08:26:06;163;163;
44674;PMS5003;30388;52.038;-1.478;2023-03-01T08:28:34;216;216;
44674;PMS5003;30388;52.038;-1.478;2023-03-01T08:31:03;188;188;
44674;PMS5003;30388;52.038;-1.478;2023-03-01T08:33:39;194;194;
44674;PMS5003;30388;52.038;-1.478;2023-03-01T08:36:06;190;190;
44674;PMS5003;30388;52.038;-1.478;2023-03-01T08:38:34;158;158;
44674;PMS5003;30388;52.038;-1.478;2023-03-01T08:41:01;181;180;
44674;PMS5003;30388;52.038;-1.478;2023-03-01T08:43:29;216;216;
44674;PMS5003;30388;52.038;-1.478;2023-03-01T08:45:57;161;161;
44674;PMS5003;30388;52.038;-1.478;2023-03-01T08:48:25;173;173;
44674;PMS5003;30388;52.038;-1.478;2023-03-01T08:50:54;150;150;
44674;PMS5003;30388;52.038;-1.478;2023-03-01T08:53:21;145;144;
44674;PMS5003;30388;52.038;-1.478;2023-03-01T08:55:48;139;139;
44674;PMS5003;30388;52.038;-1.478;2023-03-01T08:58:16;148;148;
44674;PMS5003;30388;52.038;-1.478;2023-03-01T09:00:43;143;143;
44674;PMS5003;30388;52.038;-1.478;2023-03-01T09:03:11;139;139;
44674;PMS5003;30388;52.038;-1.478;2023-03-01T09:05:38;160;156;
44674;PMS5003;30388;52.038;-1.478;2023-03-01T09:08:05;176;174;
44674;PMS5003;30388;52.038;-1.478;2023-03-01T09:10:32;147;147;
44674;PMS5003;30388;52.038;-1.478;2023-03-01T09:13:03;138;138;
44674;PMS5003;30388;52.038;-1.478;2023-03-01T09:15:31;164;164;
44674;PMS5003;30388;52.038;-1.478;2023-03-01T09:17:59;169;169;
44674;PMS5003;30388;52.038;-1.478;2023-03-01T09:20:27;155;155;
44674;PMS5003;30388;52.038;-1.478;2023-03-01T09:22:54;144;143;
44674;PMS5003;30388;52.038;-1.478;2023-03-01T09:25:21;144;144;
44674;PMS5003;30388;52.038;-1.478;2023-03-01T09:27:50;133;132;
44674;PMS5003;30388;52.038;-1.478;2023-03-01T09:30:17;141;139;
44674;PMS5003;30388;52.038;-1.478;2023-03-01T09:32:45;134;134;
44674;PMS5003;30388;52.038;-1.478;2023-03-01T09:35:12;138;138;
44674;PMS5003;30388;52.038;-1.478;2023-03-01T09:37:40;132;132;
44674;PMS5003;30388;52.038;-1.478;2023-03-01T09:40:11;118;118;
44674;PMS5003;30388;52.038;-1.478;2023-03-01T09:42:46;130;130;
44674;PMS5003;30388;52.038;-1.478;2023-03-01T09:45:20;142;142;
44674;PMS5003;30388;52.038;-1.478;2023-03-01T09:47:54;160;160;
44674;PMS5003;30388;52.038;-1.478;2023-03-01T09:50:23;144;144;
44674;PMS5003;30388;52.038;-1.478;2023-03-01T09:52:58;148;148;
44674;PMS5003;30388;52.038;-1.478;2023-03-01T09:55:30;148;148;
44674;PMS5003;30388;52.038;-1.478;2023-03-01T09:58:06;151;150;
44674;PMS5003;30388;52.038;-1.478;2023-03-01T10:01:03;261;261;
44674;PMS5003;30388;52.038;-1.478;2023-03-01T10:03:58;149;143;
44674;PMS5003;30388;52.038;-1.478;2023-03-01T10:06:32;138;138;
44674;PMS5003;30388;52.038;-1.478;2023-03-01T10:09:00;162;159;
44674;PMS5003;30388;52.038;-1.478;2023-03-01T10:11:37;151;151;
44674;PMS5003;30388;52.038;-1.478;2023-03-01T10:14:07;152;150;
44674;PMS5003;30388;52.038;-1.478;2023-03-01T10:16:48;160;157;
44674;PMS5003;30388;52.038;-1.478;2023-03-01T10:19:22;146;146;
44674;PMS5003;30388;52.038;-1.478;2023-03-01T10:21:54;166;166;
44674;PMS5003;30388;52.038;-1.478;2023-03-01T10:24:26;196;194;
44674;PMS5003;30388;52.038;-1.478;2023-03-01T10:27:00;226;226;
44674;PMS5003;30388;52.038;-1.478;2023-03-01T10:29:34;148;148;
44674;PMS5003;30388;52.038;-1.478;2023-03-01T10:32:06;141;141;
44674;PMS5003;30388;52.038;-1.478;2023-03-01T10:34:36;136;136;
44674;PMS5003;30388;52.038;-1.478;2023-03-01T10:37:09;147;147;
44674;PMS5003;30388;52.038;-1.478;2023-03-01T10:39:53;118;117;
44674;PMS5003;30388;52.038;-1.478;2023-03-01T10:42:26;158;157;
44674;PMS5003;30388;52.038;-1.478;2023-03-01T10:44:55;147;147;
44674;PMS5003;30388;52.038;-1.478;2023-03-01T10:47:23;147;147;
44674;PMS5003;30388;52.038;-1.478;2023-03-01T10:49:53;142;142;
44674;PMS5003;30388;52.038;-1.478;2023-03-01T10:52:22;151;151;
44674;PMS5003;30388;52.038;-1.478;2023-03-01T10:54:52;146;145;
44674;PMS5003;30388;52.038;-1.478;2023-03-01T10:57:27;146;146;
44674;PMS5003;30388;52.038;-1.478;2023-03-01T11:00:02;127;127;
44674;PMS5003;30388;52.038;-1.478;2023-03-01T11:02:48;128;128;
44674;PMS5003;30388;52.038;-1.478;2023-03-01T11:05:18;131;131;
44674;PMS5003;30388;52.038;-1.478;2023-03-01T11:07:48;137;137;
44674;PMS5003;30388;52.038;-1.478;2023-03-01T11:10:18;109;109;
44674;PMS5003;30388;52.038;-1.478;2023-03-01T11:12:50;140;139;
44674;PMS5003;30388;52.038;-1.478;2023-03-01T11:15:20;143;141;
44674;PMS5003;30388;52.038;-1.478;2023-03-01T11:17:50;138;136;
44674;PMS5003;30388;52.038;-1.478;2023-03-01T11:20:20;121;113;
44674;PMS5003;30388;52.038;-1.478;2023-03-01T11:22:53;128;123;
44674;PMS5003;30388;52.038;-1.478;2023-03-01T11:25:24;126;123;
44674;PMS5003;30388;52.038;-1.478;2023-03-01T11:27:54;131;131;
44674;PMS5003;30388;52.038;-1.478;2023-03-01T11:30:26;120;118;
44674;PMS5003;30388;52.038;-1.478;2023-03-01T11:33:01;103;101;
44674;PMS5003;30388;52.038;-1.478;2023-03-01T11:35:35;122;122;
44674;PMS5003;30388;52.038;-1.478;2023-03-01T11:38:17;135;135;
44674;PMS5003;30388;52.038;-1.478;2023-03-01T11:40:49;145;145;
44674;PMS5003;30388;52.038;-1.478;2023-03-01T11:43:26;152;152;
44674;PMS5003;30388;52.038;-1.478;2023-03-01T11:46:11;129;127;
44674;PMS5003;30388;52.038;-1.478;2023-03-01T11:49:31;143;141;
44674;PMS5003;30388;52.038;-1.478;2023-03-01T11:52:18;138;138;
44674;PMS5003;30388;52.038;-1.478;2023-03-01T11:54:57;135;135;
44674;PMS5003;30388;52.038;-1.478;2023-03-01T11:57:48;121;121;
44674;PMS5003;30388;52.038;-1.478;2023-03-01T12:00:36;115;114;
44674;PMS5003;30388;52.038;-1.478;2023-03-01T12:03:17;131;130;
44674;PMS5003;30388;52.038;-1.478;2023-03-01T12:06:05;169;168;
44674;PMS5003;30388;52.038;-1.478;2023-03-01T12:08:56;135;129;
44674;PMS5003;30388;52.038;-1.478;2023-03-01T12:11:39;138;131;
44674;PMS5003;30388;52.038;-1.478;2023-03-01T12:14:22;138;133;
44674;PMS5003;30388;52.038;-1.478;2023-03-01T12:17:09;164;157;
44674;PMS5003;30388;52.038;-1.478;2023-03-01T12:19:58;160;155;
44674;PMS5003;30388;52.038;-1.478;2023-03-01T12:22:39;168;165;
44674;PMS5003;30388;52.038;-1.478;2023-03-01T12:25:21;174;170;
44674;PMS5003;30388;52.038;-1.478;2023-03-01T12:28:00;125;125;
44674;PMS5003;30388;52.038;-1.478;2023-03-01T12:30:44;140;140;
44674;PMS5003;30388;52.038;-1.478;2023-03-01T12:33:22;139;139;
44674;PMS5003;30388;52.038;-1.478;2023-03-01T12:38:17;134;134;
44674;PMS5003;30388;52.038;-1.478;2023-03-01T12:41:04;137;137;
44674;PMS5003;30388;52.038;-1.478;2023-03-01T12:43:55;142;142;
44674;PMS5003;30388;52.038;-1.478;2023-03-01T12:46:34;128;125;
44674;PMS5003;30388;52.038;-1.478;2023-03-01T12:49:15;125;124;
44674;PMS5003;30388;52.038;-1.478;2023-03-01T12:51:49;177;176;
44674;PMS5003;30388;52.038;-1.478;2023-03-01T12:54:23;174;167;
44674;PMS5003;30388;52.038;-1.478;2023-03-01T12:56:54;153;153;
44674;PMS5003;30388;52.038;-1.478;2023-03-01T12:59:24;172;168;
44674;PMS5003;30388;52.038;-1.478;2023-03-01T13:02:02;180;173;
44674;PMS5003;30388;52.038;-1.478;2023-03-01T13:04:36;138;130;
44674;PMS5003;30388;52.038;-1.478;2023-03-01T13:07:15;151;142;
44674;PMS5003;30388;52.038;-1.478;2023-03-01T13:09:54;126;126;
44674;PMS5003;30388;52.038;-1.478;2023-03-01T13:13:29;137;135;
44674;PMS5003;30388;52.038;-1.478;2023-03-01T13:15:57;127;124;
44674;PMS5003;30388;52.038;-1.478;2023-03-01T13:18:48;143;142;
44674;PMS5003;30388;52.038;-1.478;2023-03-01T13:21:15;151;149;
44674;PMS5003;30388;52.038;-1.478;2023-03-01T13:23:56;143;143;
44674;PMS5003;30388;52.038;-1.478;2023-03-01T13:26:24;147;147;
44674;PMS5003;30388;52.038;-1.478;2023-03-01T13:28:52;145;145;
44674;PMS5003;30388;52.038;-1.478;2023-03-01T13:32:09;143;143;
44674;PMS5003;30388;52.038;-1.478;2023-03-01T13:34:48;132;132;
44674;PMS5003;30388;52.038;-1.478;2023-03-01T13:37:19;120;120;
44674;PMS5003;30388;52.038;-1.478;2023-03-01T13:39:52;118;118;
44674;PMS5003;30388;52.038;-1.478;2023-03-01T13:42:30;149;149;
44674;PMS5003;30388;52.038;-1.478;2023-03-01T13:45:00;163;160;
44674;PMS5003;30388;52.038;-1.478;2023-03-01T13:47:28;130;125;
44674;PMS5003;30388;52.038;-1.478;2023-03-01T13:49:57;147;138;
44674;PMS5003;30388;52.038;-1.478;2023-03-01T13:52:31;152;147;
44674;PMS5003;30388;52.038;-1.478;2023-03-01T13:55:03;157;153;
44674;PMS5003;30388;52.038;-1.478;2023-03-01T13:57:43;136;130;
44674;PMS5003;30388;52.038;-1.478;2023-03-01T14:00:26;124;118;
44674;PMS5003;30388;52.038;-1.478;2023-03-01T14:03:01;157;149;
44674;PMS5003;30388;52.038;-1.478;2023-03-01T14:05:30;153;148;
44674;PMS5003;30388;52.038;-1.478;2023-03-01T14:07:58;129;122;
44674;PMS5003;30388;52.038;-1.478;2023-03-01T14:10:26;122;116;
44674;PMS5003;30388;52.038;-1.478;2023-03-01T14:13:06;129;123;
44674;PMS5003;30388;52.038;-1.478;2023-03-01T14:15:49;115;110;
44674;PMS5003;30388;52.038;-1.478;2023-03-01T14:18:24;99;94;
44674;PMS5003;30388;52.038;-1.478;2023-03-01T14:20:59;118;113;
44674;PMS5003;30388;52.038;-1.478;2023-03-01T14:23:27;110;108;
44674;PMS5003;30388;52.038;-1.478;2023-03-01T14:25:54;105;99;
44674;PMS5003;30388;52.038;-1.478;2023-03-01T14:28:24;123;114;
44674;PMS5003;30388;52.038;-1.478;2023-03-01T14:30:58;153;151;
44674;PMS5003;30388;52.038;-1.478;2023-03-01T14:33:28;182;182;
44674;PMS5003;30388;52.038;-1.478;2023-03-01T14:35:58;193;193;
44674;PMS5003;30388;52.038;-1.478;2023-03-01T14:38:29;140;140;
44674;PMS5003;30388;52.038;-1.478;2023-03-01T14:41:00;137;137;
44674;PMS5003;30388;52.038;-1.478;2023-03-01T14:43:30;144;144;
44674;PMS5003;30388;52.038;-1.478;2023-03-01T14:45:57;139;139;
44674;PMS5003;30388;52.038;-1.478;2023-03-01T14:48:24;140;140;
44674;PMS5003;30388;52.038;-1.478;2023-03-01T14:50:53;141;141;
44674;PMS5003;30388;52.038;-1.478;2023-03-01T14:53:21;138;138;
44674;PMS5003;30388;52.038;-1.478;2023-03-01T14:55:52;146;146;
44674;PMS5003;30388;52.038;-1.478;2023-03-01T14:58:21;133;133;
44674;PMS5003;30388;52.038;-1.478;2023-03-01T15:00:51;137;137;
44674;PMS5003;30388;52.038;-1.478;2023-03-01T15:03:24;129;129;
44674;PMS5003;30388;52.038;-1.478;2023-03-01T15:05:54;187;184;
44674;PMS5003;30388;52.038;-1.478;2023-03-01T15:08:22;156;156;
44674;PMS5003;30388;52.038;-1.478;2023-03-01T15:10:56;165;159;
44674;PMS5003;30388;52.038;-1.478;2023-03-01T15:13:29;152;149;
44674;PMS5003;30388;52.038;-1.478;2023-03-01T15:16:02;175;171;
44674;PMS5003;30388;52.038;-1.478;2023-03-01T15:18:33;148;141;
44674;PMS5003;30388;52.038;-1.478;2023-03-01T15:21:06;161;156;
44674;PMS5003;30388;52.038;-1.478;2023-03-01T15:23:34;168;165;
44674;PMS5003;30388;52.038;-1.478;2023-03-01T15:26:05;157;154;
44674;PMS5003;30388;52.038;-1.478;2023-03-01T15:28:49;151;147;
44674;PMS5003;30388;52.038;-1.478;2023-03-01T15:31:20;152;145;
44674;PMS5003;30388;52.038;-1.478;2023-03-01T15:33:49;153;144;
44674;PMS5003;30388;52.038;-1.478;2023-03-01T15:36:36;168;163;
44674;PMS5003;30388;52.038;-1.478;2023-03-01T15:39:23;137;137;
44674;PMS5003;30388;52.038;-1.478;2023-03-01T15:41:59;138;138;
44674;PMS5003;30388;52.038;-1.478;2023-03-01T15:44:27;157;157;
44674;PMS5003;30388;52.038;-1.478;2023-03-01T15:46:58;140;139;
44674;PMS5003;30388;52.038;-1.478;2023-03-01T15:49:30;73;73;
44674;PMS5003;30388;52.038;-1.478;2023-03-01T15:52:05;69;69;
44674;PMS5003;30388;52.038;-1.478;2023-03-01T15:54:39;46;46;
44674;PMS5003;30388;52.038;-1.478;2023-03-01T15:57:10;43;43;
44674;PMS5003;30388;52.038;-1.478;2023-03-01T15:59:39;31;31;
44674;PMS5003;30388;52.038;-1.478;2023-03-01T16:02:08;37;36;
44674;PMS5003;30388;52.038;-1.478;2023-03-01T16:04:36;65;65;
44674;PMS5003;30388;52.038;-1.478;2023-03-01T16:07:03;84;84;